createdAt,value
2022-08-09T00:01:54.876Z,2.00
2022-08-09T00:07:18.266Z,1.00
2022-08-09T00:12:51.595Z,1.00
2022-08-09T00:18:21.905Z,1.00
2022-08-09T00:23:57.861Z,1.00
2022-08-09T00:29:39.344Z,1.00
2022-08-09T00:34:58.599Z,0.00
2022-08-09T00:40:30.142Z,0.00
2022-08-09T00:46:01.038Z,1.00
2022-08-09T00:51:33.949Z,0.00
2022-08-09T00:57:10.690Z,2.00
2022-08-09T03:04:16.770Z,2.00
2022-08-09T03:09:16.071Z,3.00
2022-08-09T03:14:48.159Z,4.00
2022-08-09T03:20:43.388Z,8.00
2022-08-09T03:26:14.965Z,20.00
2022-08-09T03:31:59.502Z,51.00
2022-08-09T03:37:54.586Z,125.00
2022-08-09T03:42:50.364Z,274.00
2022-08-09T03:48:30.609Z,527.00
2022-08-09T03:53:54.048Z,920.00
2022-08-09T03:59:27.246Z,1477.00
2022-08-09T04:04:58.432Z,2294.00
2022-08-09T04:10:30.510Z,3473.00
2022-08-09T04:16:20.256Z,8969.00
2022-08-09T04:21:38.470Z,17588.00
2022-08-09T04:27:05.225Z,14083.00
2022-08-09T04:32:38.562Z,8255.00
2022-08-09T04:38:09.096Z,2141.00
2022-08-09T04:43:53.650Z,0.00
2022-08-09T04:49:14.559Z,0.00
2022-08-09T04:54:45.018Z,5533.00
2022-08-09T05:00:17.244Z,17208.00
2022-08-09T05:05:52.070Z,17695.00
2022-08-09T05:11:21.214Z,18400.00
2022-08-09T05:16:59.564Z,18968.00
2022-08-09T05:22:33.227Z,19783.00
2022-08-09T05:27:57.859Z,20666.00
2022-08-09T05:33:33.164Z,26671.00
2022-08-09T05:39:01.566Z,0.00
2022-08-09T05:44:34.889Z,0.00
2022-08-09T05:50:25.804Z,0.00
2022-08-09T05:55:36.889Z,0.00
2022-08-09T06:01:08.807Z,0.00
2022-08-09T06:06:45.141Z,0.00
2022-08-09T06:12:12.691Z,0.00
2022-08-09T06:17:44.573Z,0.00
2022-08-09T06:23:16.395Z,0.00
2022-08-09T06:28:47.913Z,0.00
2022-08-09T06:34:19.981Z,0.00
2022-08-09T06:39:59.848Z,0.00
2022-08-09T06:46:06.940Z,0.00
2022-08-09T06:50:55.103Z,0.00
2022-08-09T06:56:31.154Z,0.00
2022-08-09T07:02:03.589Z,0.00
2022-08-09T07:08:00.551Z,0.00
2022-08-09T07:13:18.563Z,0.00
2022-08-09T07:18:34.203Z,0.00
2022-08-09T07:24:06.277Z,0.00
2022-08-09T07:29:42.888Z,0.00
2022-08-09T07:35:10.719Z,0.00
2022-08-09T07:41:08.331Z,0.00
2022-08-09T07:46:13.248Z,0.00
2022-08-09T07:52:06.122Z,0.00
2022-08-09T07:57:17.435Z,0.00
2022-08-09T08:02:49.248Z,0.00
2022-08-09T08:09:01.718Z,0.00
2022-08-09T08:13:56.891Z,0.00
2022-08-09T08:19:29.221Z,0.00
2022-08-09T08:30:26.840Z,0.00
2022-08-09T08:36:00.435Z,0.00
2022-08-09T08:41:42.026Z,0.00
2022-08-09T08:47:04.485Z,0.00
2022-08-09T08:58:05.483Z,0.00
2022-08-09T09:03:37.840Z,0.00
2022-08-09T09:09:21.251Z,0.00
2022-08-09T09:14:41.043Z,0.00
2022-08-09T09:20:15.545Z,0.00
2022-08-09T09:26:01.380Z,21531.00
2022-08-09T09:31:17.489Z,22647.00
2022-08-09T09:36:53.253Z,23026.00
2022-08-09T09:42:21.347Z,23441.00
2022-08-09T09:47:56.366Z,23415.00
2022-08-09T09:53:43.720Z,23705.00
2022-08-09T09:58:56.222Z,23896.00
2022-08-09T10:04:30.993Z,23792.00
2022-08-09T10:10:00.112Z,24186.00
2022-08-09T10:16:08.674Z,24145.00
2022-08-09T10:21:03.810Z,24207.00
2022-08-09T10:26:35.615Z,24572.00
2022-08-09T10:37:39.516Z,25085.00
2022-08-09T10:43:13.022Z,25258.00
2022-08-09T10:48:43.942Z,25259.00
2022-08-09T10:54:15.738Z,25528.00
2022-08-09T10:59:57.423Z,25501.00
2022-08-09T11:05:24.980Z,25532.00
2022-08-09T11:10:54.684Z,25542.00
2022-08-09T11:16:35.040Z,25760.00
2022-08-09T11:22:05.453Z,25629.00
2022-08-09T11:28:05.224Z,25723.00
2022-08-09T11:32:59.658Z,25470.00
2022-08-09T11:38:33.293Z,25528.00
2022-08-09T11:44:03.197Z,25193.00
2022-08-09T11:49:42.566Z,25039.00
2022-08-09T11:55:06.876Z,25148.00
2022-08-09T12:00:38.663Z,25226.00
2022-08-09T12:06:10.721Z,24728.00
2022-08-09T12:12:02.694Z,24680.00
2022-08-09T12:17:33.893Z,24147.00
2022-08-09T12:22:46.337Z,23972.00
2022-08-09T12:29:11.816Z,23833.00
2022-08-09T12:33:58.688Z,23628.00
2022-08-09T12:39:21.975Z,23692.00
2022-08-09T12:44:54.734Z,23303.00
2022-08-09T12:50:26.053Z,23279.00
2022-08-09T12:56:15.326Z,22652.00
2022-08-09T13:01:29.820Z,22670.00
2022-08-09T13:07:01.995Z,22449.00
2022-08-09T13:12:40.047Z,22417.00
2022-08-09T13:18:09.800Z,22366.00
2022-08-09T13:24:16.696Z,22199.00
2022-08-09T13:29:09.753Z,22200.00
2022-08-09T13:34:42.004Z,21769.00
2022-08-09T13:41:56.538Z,22042.00
2022-08-09T13:46:42.194Z,21844.00
2022-08-09T13:51:18.127Z,21685.00
2022-08-09T13:56:50.487Z,21684.00
2022-08-09T14:02:35.374Z,21452.00
2022-08-09T14:07:55.023Z,21369.00
2022-08-09T14:14:15.662Z,21257.00
2022-08-09T14:18:59.683Z,21100.00
2022-08-09T14:24:32.426Z,21170.00
2022-08-09T14:30:33.989Z,21346.00
2022-08-09T14:35:52.327Z,21002.00
2022-08-09T14:41:34.580Z,21073.00
2022-08-09T14:47:04.714Z,20966.00
2022-08-09T14:52:11.463Z,20981.00
2022-08-09T14:57:43.863Z,20818.00
2022-08-09T15:03:16.651Z,20602.00
2022-08-09T15:08:56.386Z,20597.00
2022-08-09T15:14:19.604Z,20336.00
2022-08-09T15:19:59.673Z,20193.00
2022-08-09T15:25:38.893Z,20079.00
2022-08-09T15:31:08.724Z,19897.00
2022-08-09T15:36:29.413Z,19693.00
2022-08-09T15:41:59.829Z,19547.00
2022-08-09T15:47:47.211Z,19197.00
2022-08-09T15:58:35.572Z,18612.00
2022-08-09T16:04:13.596Z,18342.00
2022-08-09T16:10:02.291Z,18034.00
2022-08-09T16:16:10.256Z,17773.00
2022-08-09T16:20:43.281Z,17277.00
2022-08-09T16:26:19.941Z,16975.00
2022-08-09T16:32:18.513Z,16532.00
2022-08-09T16:34:02.510Z,16479.00
2022-08-09T16:39:47.956Z,15930.00
2022-08-09T16:45:03.862Z,15297.00
2022-08-09T16:50:38.722Z,15002.00
2022-08-09T16:56:09.861Z,14636.00
2022-08-09T17:01:39.443Z,14185.00
2022-08-09T17:08:46.352Z,13672.00
2022-08-09T17:12:43.607Z,13247.00
2022-08-09T17:18:15.496Z,12723.00
2022-08-09T17:24:28.222Z,12158.00
2022-08-09T17:29:20.237Z,11559.00
2022-08-09T17:35:03.874Z,10871.00
2022-08-09T17:40:26.211Z,10173.00
2022-08-09T17:46:03.417Z,9489.00
2022-08-09T17:51:25.778Z,8687.00
2022-08-09T17:56:57.682Z,7846.00
2022-08-09T18:02:33.537Z,6987.00
2022-08-09T18:08:01.382Z,6063.00
2022-08-09T18:13:40.037Z,5141.00
2022-08-09T18:20:57.988Z,4207.00
2022-08-09T18:24:36.148Z,3190.00
2022-08-09T18:30:40.885Z,2305.00
2022-08-09T18:35:59.496Z,1558.00
2022-08-09T18:41:11.332Z,981.00
2022-08-09T18:46:49.541Z,551.00
2022-08-09T18:52:16.058Z,273.00
2022-08-09T18:57:46.581Z,124.00
2022-08-09T19:03:18.674Z,52.00
2022-08-09T19:08:55.430Z,22.00
2022-08-09T19:14:24.491Z,9.00
2022-08-09T19:20:00.597Z,5.00
2022-08-09T19:25:41.872Z,3.00
2022-08-09T19:30:56.627Z,12.00
2022-08-09T19:36:32.785Z,13.00
2022-08-09T19:42:00.281Z,12.00
2022-08-09T19:47:31.861Z,12.00
2022-08-09T19:53:04.165Z,12.00
2022-08-09T19:58:35.359Z,11.00
2022-08-09T20:04:18.958Z,12.00
2022-08-09T20:09:44.551Z,12.00
2022-08-09T20:16:34.223Z,11.00
2022-08-09T20:20:43.685Z,12.00
2022-08-09T20:26:15.612Z,11.00
2022-08-09T20:32:28.901Z,7.00
2022-08-09T20:37:21.440Z,11.00
2022-08-09T20:42:53.256Z,12.00
2022-08-09T20:48:22.219Z,11.00
2022-08-09T20:53:54.053Z,11.00
2022-08-09T21:00:22.266Z,11.00
2022-08-09T21:05:57.136Z,11.00
2022-08-09T21:10:30.502Z,12.00
2022-08-09T21:16:03.270Z,12.00
2022-08-09T21:21:53.121Z,11.00
2022-08-09T21:27:50.416Z,7.00
2022-08-09T21:32:38.702Z,10.00
2022-08-09T21:38:10.546Z,10.00
2022-08-09T21:43:58.101Z,10.00
2022-08-09T21:49:13.649Z,10.00
2022-08-09T21:54:46.036Z,11.00
2022-08-09T22:00:17.292Z,0.00
2022-08-09T22:05:51.219Z,1.00
2022-08-09T22:12:05.371Z,1.00
2022-08-09T22:16:52.635Z,1.00
2022-08-09T22:22:25.499Z,0.00
2022-08-09T22:27:57.328Z,2.00
2022-08-09T22:33:37.611Z,1.00
2022-08-09T22:39:01.426Z,2.00
2022-08-09T22:50:04.775Z,2.00
2022-08-09T22:56:29.431Z,0.00
2022-08-09T23:06:40.160Z,2.00
2022-08-09T23:12:11.970Z,0.00
2022-08-09T23:17:44.019Z,0.00
2022-08-09T23:23:18.314Z,2.00
2022-08-09T23:28:50.918Z,1.00
2022-08-09T23:34:22.564Z,2.00
2022-08-09T23:39:54.347Z,1.00
2022-08-09T23:45:37.984Z,1.00
2022-08-09T23:50:57.973Z,2.00
2022-08-09T23:56:52.776Z,0.00
